Terminal Aerodrome Forecast
Issued by NWS

Home | Current Version | Previous Version | Text Only | Print | Product List | Glossary On
Versions: 1 2 3 4 5 6 7 8 9 10 11 12 13 14 15 16 17 18 19 20 21 22
000
FTUS41 KBGM 300500
TAFITH
TAF
KITH 300520Z 3006/3106 19015KT P6SM -SN OVC050
      TEMPO 3006/3009 3SM -SHSN OVC025
     FM301200 22010G20KT P6SM -SHRASN OVC025
     FM301600 28015G25KT P6SM -SHRA OVC035
     FM310000 28007KT P6SM BKN050=

USA.gov is the U.S. government's official web portal to all federal, state and local government web resources and services.